EZY67JT EGKK-LCPH
Flight info
| Callsign | EZY67JT |
|---|---|
| Flight time | N/A |
| Altitude | 35000 |
| Route | MIMFO1M MIMFO Y312 DVR L9 KONAN/N0454F350 UL607 REMBA M624 DIK N852 SUTAL DCT GTQ DCT BEGAR DCT TRA DCT SUXAN DCT ROKIB DCT ROTAR DCT VAKSU DCT KOFER DCT PINDO DCT NEVRA DCT AKINA DCT LINRO UL52 VAXOS UM978 TOSKA DCT TOBAL TOBAL1T |
| Aircraft | A320/M-SDE3FGHIRWY/LB1 |
Departure
| Time | 2026-04-14 13:08 |
|---|---|
| Airport | London Gatwick Airport (EGKK) |
Arrival
| Time | N/A |
|---|---|
| Airport | Paphos International Airport (LCPH) |
| Time | Latitude | Longitude | Altitude | Speed | Heading |
|---|---|---|---|---|---|
| 2026-04-14 12:26 | 51.16189 | -0.18070 | 205 ft | 0 kts | 78° |
| 2026-04-14 12:47 | 51.16188 | -0.18075 | 217 ft | 2 kts | 78° |
| 2026-04-14 12:47 | 51.16184 | -0.18104 | 207 ft | 3 kts | 82° |
| 2026-04-14 12:48 | 51.16182 | -0.18136 | 218 ft | 3 kts | 89° |
| 2026-04-14 12:48 | 51.16183 | -0.18167 | 218 ft | 3 kts | 104° |
| 2026-04-14 12:48 | 51.16190 | -0.18195 | 218 ft | 3 kts | 143° |
| 2026-04-14 12:48 | 51.16198 | -0.18202 | 217 ft | 0 kts | 168° |
| 2026-04-14 12:51 | 51.16195 | -0.18202 | 217 ft | 1 kts | 168° |
| 2026-04-14 12:51 | 51.16180 | -0.18197 | 217 ft | 3 kts | 169° |
| 2026-04-14 12:52 | 51.16156 | -0.18189 | 216 ft | 4 kts | 168° |
| 2026-04-14 12:52 | 51.16122 | -0.18178 | 211 ft | 6 kts | 167° |
| 2026-04-14 12:52 | 51.16080 | -0.18162 | 215 ft | 7 kts | 167° |
| 2026-04-14 12:52 | 51.16029 | -0.18144 | 210 ft | 8 kts | 167° |
| 2026-04-14 12:53 | 51.15971 | -0.18123 | 207 ft | 9 kts | 167° |
| 2026-04-14 12:53 | 51.15905 | -0.18101 | 207 ft | 10 kts | 168° |
| 2026-04-14 12:53 | 51.15892 | -0.18097 | 209 ft | 1 kts | 169° |
| 2026-04-14 12:58 | 51.15882 | -0.18094 | 213 ft | 3 kts | 168° |
| 2026-04-14 12:58 | 51.15857 | -0.18085 | 210 ft | 4 kts | 168° |
| 2026-04-14 12:58 | 51.15800 | -0.18066 | 213 ft | 11 kts | 168° |
| 2026-04-14 12:58 | 51.15723 | -0.18038 | 211 ft | 12 kts | 163° |
| 2026-04-14 12:59 | 51.15702 | -0.17928 | 209 ft | 11 kts | 79° |
| 2026-04-14 12:59 | 51.15718 | -0.17817 | 209 ft | 9 kts | 77° |
| 2026-04-14 12:59 | 51.15730 | -0.17727 | 207 ft | 8 kts | 77° |
| 2026-04-14 12:59 | 51.15740 | -0.17651 | 211 ft | 6 kts | 77° |
| 2026-04-14 13:00 | 51.15749 | -0.17587 | 218 ft | 7 kts | 78° |
| 2026-04-14 13:00 | 51.15733 | -0.17511 | 211 ft | 9 kts | 146° |
| 2026-04-14 13:00 | 51.15669 | -0.17482 | 209 ft | 10 kts | 167° |
| 2026-04-14 13:00 | 51.15597 | -0.17457 | 210 ft | 11 kts | 167° |
| 2026-04-14 13:01 | 51.15520 | -0.17430 | 206 ft | 12 kts | 167° |
| 2026-04-14 13:01 | 51.15440 | -0.17402 | 213 ft | 12 kts | 168° |
| 2026-04-14 13:01 | 51.15358 | -0.17374 | 211 ft | 12 kts | 167° |
| 2026-04-14 13:01 | 51.15272 | -0.17342 | 209 ft | 13 kts | 162° |
| 2026-04-14 13:02 | 51.15195 | -0.17261 | 211 ft | 13 kts | 138° |
| 2026-04-14 13:02 | 51.15190 | -0.17119 | 217 ft | 13 kts | 78° |
| 2026-04-14 13:02 | 51.15208 | -0.16986 | 207 ft | 11 kts | 77° |
| 2026-04-14 13:02 | 51.15217 | -0.16918 | 215 ft | 2 kts | 78° |
| 2026-04-14 13:03 | 51.15217 | -0.16916 | 214 ft | 0 kts | 78° |
| 2026-04-14 13:05 | 51.15219 | -0.16902 | 206 ft | 5 kts | 78° |
| 2026-04-14 13:05 | 51.15220 | -0.16848 | 207 ft | 7 kts | 98° |
| 2026-04-14 13:05 | 51.15176 | -0.16784 | 214 ft | 10 kts | 167° |
| 2026-04-14 13:05 | 51.15120 | -0.16832 | 207 ft | 10 kts | 243° |
| 2026-04-14 13:06 | 51.15110 | -0.16892 | 212 ft | 0 kts | 257° |
| 2026-04-14 13:07 | 51.15097 | -0.16974 | 214 ft | 31 kts | 256° |
| 2026-04-14 13:07 | 51.14995 | -0.17719 | 212 ft | 103 kts | 258° |
| 2026-04-14 13:07 | 51.14799 | -0.19120 | 217 ft | 158 kts | 257° |
| 2026-04-14 13:07 | 51.14540 | -0.20917 | 664 ft | 168 kts | 252° |
| 2026-04-14 13:08 | 51.14305 | -0.22731 | 1475 ft | 169 kts | 252° |
| 2026-04-14 13:08 | 51.14039 | -0.24672 | 1988 ft | 189 kts | 252° |
| 2026-04-14 13:08 | 51.13758 | -0.26777 | 2648 ft | 196 kts | 251° |
| 2026-04-14 13:08 | 51.13479 | -0.28917 | 3190 ft | 200 kts | 252° |
| 2026-04-14 13:09 | 51.13355 | -0.31147 | 3855 ft | 209 kts | 268° |
| 2026-04-14 13:09 | 51.13739 | -0.33398 | 3959 ft | 214 kts | 292° |
| 2026-04-14 13:09 | 51.14681 | -0.35254 | 4047 ft | 221 kts | 315° |
| 2026-04-14 13:09 | 51.16039 | -0.36445 | 4034 ft | 227 kts | 340° |
| 2026-04-14 13:10 | 51.17618 | -0.36684 | 4053 ft | 231 kts | 6° |
| 2026-04-14 13:10 | 51.19144 | -0.35852 | 4368 ft | 234 kts | 34° |
| 2026-04-14 13:10 | 51.20316 | -0.34122 | 4999 ft | 230 kts | 57° |
| 2026-04-14 13:10 | 51.20958 | -0.31806 | 5540 ft | 229 kts | 83° |
| 2026-04-14 13:11 | 51.20951 | -0.29308 | 6094 ft | 225 kts | 104° |
| 2026-04-14 13:11 | 51.20664 | -0.26837 | 6623 ft | 230 kts | 105° |
| 2026-04-14 13:11 | 51.20340 | -0.24238 | 6852 ft | 249 kts | 105° |
| 2026-04-14 13:11 | 51.20157 | -0.21442 | 7370 ft | 258 kts | 85° |
| 2026-04-14 13:12 | 51.20517 | -0.18647 | 8038 ft | 261 kts | 79° |
| 2026-04-14 13:12 | 51.20918 | -0.15794 | 8621 ft | 271 kts | 79° |
| 2026-04-14 13:12 | 51.21325 | -0.12735 | 8969 ft | 291 kts | 80° |
| 2026-04-14 13:12 | 51.21747 | -0.09517 | 9591 ft | 299 kts | 79° |
| 2026-04-14 13:13 | 51.22178 | -0.06250 | 10279 ft | 304 kts | 79° |
| 2026-04-14 13:13 | 51.22625 | -0.02837 | 10550 ft | 326 kts | 80° |
| 2026-04-14 13:13 | 51.23100 | 0.00824 | 10767 ft | 346 kts | 80° |
| 2026-04-14 13:13 | 51.23593 | 0.04625 | 11302 ft | 354 kts | 80° |
| 2026-04-14 13:14 | 51.23788 | 0.08554 | 11952 ft | 356 kts | 95° |
| 2026-04-14 13:14 | 51.23613 | 0.12515 | 12608 ft | 360 kts | 96° |
| 2026-04-14 13:14 | 51.23420 | 0.16520 | 13267 ft | 364 kts | 96° |
| 2026-04-14 13:14 | 51.23217 | 0.20565 | 13915 ft | 368 kts | 96° |
| 2026-04-14 13:15 | 51.23010 | 0.24663 | 14329 ft | 372 kts | 96° |
| 2026-04-14 13:15 | 51.22802 | 0.28794 | 14867 ft | 376 kts | 96° |
| 2026-04-14 13:15 | 51.22594 | 0.32973 | 15427 ft | 379 kts | 95° |
| 2026-04-14 13:15 | 51.22387 | 0.37122 | 15974 ft | 383 kts | 95° |
| 2026-04-14 13:16 | 51.22174 | 0.41378 | 16539 ft | 386 kts | 95° |
| 2026-04-14 13:16 | 51.21958 | 0.45670 | 17080 ft | 390 kts | 94° |
| 2026-04-14 13:16 | 51.21738 | 0.49993 | 17633 ft | 393 kts | 94° |
| 2026-04-14 13:16 | 51.21515 | 0.54357 | 18198 ft | 396 kts | 94° |
| 2026-04-14 13:17 | 51.21288 | 0.58759 | 18697 ft | 399 kts | 94° |
| 2026-04-14 13:17 | 51.21056 | 0.63185 | 19188 ft | 402 kts | 94° |
| 2026-04-14 13:17 | 51.20819 | 0.67648 | 19679 ft | 406 kts | 94° |
| 2026-04-14 13:17 | 51.20579 | 0.72151 | 20158 ft | 410 kts | 94° |
| 2026-04-14 13:18 | 51.20336 | 0.76699 | 20634 ft | 413 kts | 93° |
| 2026-04-14 13:18 | 51.20089 | 0.81289 | 21103 ft | 417 kts | 93° |
| 2026-04-14 13:18 | 51.19840 | 0.85917 | 21645 ft | 421 kts | 93° |
| 2026-04-14 13:18 | 51.19593 | 0.90523 | 22103 ft | 424 kts | 93° |
| 2026-04-14 13:19 | 51.19332 | 0.95296 | 22550 ft | 428 kts | 92° |
| 2026-04-14 13:19 | 51.19073 | 0.99974 | 22989 ft | 432 kts | 92° |
| 2026-04-14 13:19 | 51.18803 | 1.04821 | 23430 ft | 435 kts | 92° |